createdAt,value
2022-09-14T00:00:37.327Z,16.20
2022-09-14T00:05:44.356Z,16.00
2022-09-14T00:10:51.824Z,16.10
2022-09-14T00:15:59.401Z,16.10
2022-09-14T00:21:10.266Z,16.20
2022-09-14T00:26:21.566Z,16.30
2022-09-14T00:31:29.768Z,16.40
2022-09-14T00:36:42.392Z,16.40
2022-09-14T00:41:53.171Z,16.30
2022-09-14T00:47:04.207Z,16.40
2022-09-14T00:52:21.290Z,16.40
2022-09-14T00:57:32.861Z,16.40
2022-09-14T01:02:42.813Z,16.40
2022-09-14T01:08:09.336Z,16.40
2022-09-14T01:13:46.260Z,16.40
2022-09-14T01:19:00.337Z,16.30
2022-09-14T01:24:24.935Z,16.30
2022-09-14T01:30:05.399Z,16.40
2022-09-14T01:35:25.539Z,16.50
2022-09-14T01:40:42.813Z,16.50
2022-09-14T01:45:56.524Z,16.60
2022-09-14T01:51:05.122Z,16.70
2022-09-14T01:56:32.441Z,16.70
2022-09-14T02:02:02.259Z,16.70
2022-09-14T02:07:11.406Z,16.60
2022-09-14T02:12:18.892Z,16.60
2022-09-14T02:17:26.529Z,16.70
2022-09-14T02:22:34.506Z,16.60
2022-09-14T02:27:42.841Z,16.60
2022-09-14T02:33:12.676Z,16.70
2022-09-14T02:38:36.161Z,16.80
2022-09-14T02:44:03.021Z,16.80
2022-09-14T02:49:35.307Z,16.80
2022-09-14T02:54:54.442Z,16.80
2022-09-14T03:01:07.725Z,16.80
2022-09-14T03:05:11.189Z,16.70
2022-09-14T03:10:19.080Z,16.70
2022-09-14T03:15:26.075Z,16.70
2022-09-14T03:20:35.195Z,16.70
2022-09-14T03:25:45.534Z,16.70
2022-09-14T03:30:52.283Z,16.70
2022-09-14T03:35:59.905Z,16.80
2022-09-14T03:41:14.767Z,16.80
2022-09-14T03:46:25.478Z,16.80
2022-09-14T03:51:32.582Z,16.90
2022-09-14T03:56:39.307Z,16.90
2022-09-14T04:01:47.050Z,16.80
2022-09-14T04:06:56.988Z,16.90
2022-09-14T04:12:04.806Z,16.60
2022-09-14T04:17:12.905Z,16.60
2022-09-14T04:22:20.197Z,16.80
2022-09-14T04:27:26.863Z,16.60
2022-09-14T04:32:35.387Z,16.60
2022-09-14T04:37:43.493Z,16.60
2022-09-14T04:42:51.928Z,16.60
2022-09-14T04:47:59.701Z,16.60
2022-09-14T04:53:06.430Z,16.70
2022-09-14T04:58:13.825Z,16.80
2022-09-14T05:03:20.867Z,16.90
2022-09-14T05:08:28.487Z,16.90
2022-09-14T05:13:37.925Z,16.90
2022-09-14T05:18:46.467Z,17.00
2022-09-14T05:24:03.992Z,16.80
2022-09-14T05:29:13.822Z,16.80
2022-09-14T05:34:20.525Z,16.90
2022-09-14T05:39:28.908Z,17.00
2022-09-14T05:44:37.517Z,17.10
2022-09-14T05:49:44.324Z,17.10
2022-09-14T05:54:51.782Z,17.30
2022-09-14T05:59:58.580Z,17.40
2022-09-14T06:05:05.652Z,17.30
2022-09-14T06:10:14.462Z,17.50
2022-09-14T06:15:21.153Z,17.40
2022-09-14T06:20:28.140Z,17.50
2022-09-14T06:25:36.005Z,17.50
2022-09-14T06:30:46.798Z,17.60
2022-09-14T06:36:07.408Z,17.60
2022-09-14T06:41:19.690Z,17.60
2022-09-14T06:46:31.052Z,17.50
2022-09-14T06:51:48.312Z,17.50
2022-09-14T06:56:55.639Z,17.70
2022-09-14T07:02:02.417Z,18.00
2022-09-14T07:07:09.799Z,18.20
2022-09-14T07:12:16.595Z,18.30
2022-09-14T07:17:23.315Z,18.40
2022-09-14T07:22:30.912Z,18.30
2022-09-14T07:27:40.174Z,18.50
2022-09-14T07:32:49.627Z,18.70
2022-09-14T07:37:57.315Z,18.90
2022-09-14T07:43:04.499Z,19.10
2022-09-14T07:48:11.373Z,19.20
2022-09-14T07:53:22.248Z,19.40
2022-09-14T07:58:30.061Z,19.30
2022-09-14T08:03:40.938Z,19.40
2022-09-14T08:08:51.011Z,19.40
2022-09-14T08:14:03.647Z,19.60
2022-09-14T08:19:17.629Z,19.80
2022-09-14T08:24:25.790Z,20.30
2022-09-14T08:29:32.539Z,20.30
2022-09-14T08:34:39.626Z,20.00
2022-09-14T08:39:51.396Z,20.10
2022-09-14T08:44:58.735Z,20.10
2022-09-14T08:50:09.974Z,20.10
2022-09-14T08:55:42.670Z,21.00
2022-09-14T09:01:09.357Z,21.60
2022-09-14T09:06:41.340Z,22.10
2022-09-14T09:11:52.579Z,21.70
2022-09-14T09:17:04.072Z,22.40
2022-09-14T09:22:15.225Z,22.60
2022-09-14T09:27:22.582Z,22.70
2022-09-14T09:32:29.512Z,22.80
2022-09-14T09:37:39.866Z,22.30
2022-09-14T09:43:18.682Z,22.30
2022-09-14T09:48:35.452Z,22.50
2022-09-14T09:53:52.674Z,22.90
2022-09-14T09:59:00.845Z,23.20
2022-09-14T10:04:27.846Z,23.50
2022-09-14T10:09:35.047Z,23.80
2022-09-14T10:14:43.205Z,24.00
2022-09-14T10:19:58.393Z,24.20
2022-09-14T10:25:18.725Z,24.50
2022-09-14T10:30:35.847Z,24.60
2022-09-14T10:35:56.641Z,24.80
2022-09-14T10:41:36.741Z,24.60
2022-09-14T10:47:07.603Z,24.20
2022-09-14T10:52:48.367Z,24.10
2022-09-14T10:58:23.796Z,24.90
2022-09-14T11:03:59.804Z,25.00
2022-09-14T11:09:22.854Z,24.70
2022-09-14T11:14:52.225Z,24.80
2022-09-14T11:20:27.531Z,25.20
2022-09-14T11:25:53.927Z,25.80
2022-09-14T11:31:14.279Z,25.50
2022-09-14T11:36:38.463Z,25.50
2022-09-14T11:41:52.856Z,25.50
2022-09-14T11:47:07.132Z,25.70
2022-09-14T11:52:22.763Z,25.50
2022-09-14T11:57:35.042Z,25.40
2022-09-14T12:02:49.902Z,25.60
2022-09-14T12:08:26.442Z,25.40
2022-09-14T12:13:34.078Z,25.50
2022-09-14T12:18:43.859Z,25.20
2022-09-14T12:23:55.919Z,25.60
2022-09-14T12:29:10.751Z,25.60
2022-09-14T12:34:32.804Z,25.70
2022-09-14T12:39:40.586Z,25.60
2022-09-14T12:44:47.969Z,25.30
2022-09-14T12:50:22.064Z,25.40
2022-09-14T12:55:39.523Z,25.20
2022-09-14T13:00:54.609Z,25.10
2022-09-14T13:06:01.357Z,24.30
2022-09-14T13:11:10.103Z,24.10
2022-09-14T13:16:21.227Z,24.20
2022-09-14T13:21:28.350Z,24.50
2022-09-14T13:26:35.825Z,24.80
2022-09-14T13:31:42.748Z,24.80
2022-09-14T13:36:50.403Z,24.90
2022-09-14T13:41:59.972Z,25.10
2022-09-14T13:47:08.738Z,25.20
2022-09-14T13:53:00.047Z,25.20
2022-09-14T13:58:07.547Z,25.00
2022-09-14T14:03:25.210Z,25.10
2022-09-14T14:08:39.154Z,25.30
2022-09-14T14:13:45.900Z,25.40
2022-09-14T14:18:59.537Z,25.20
2022-09-14T14:24:30.839Z,25.00
2022-09-14T14:29:38.398Z,24.90
2022-09-14T14:34:47.052Z,24.10
2022-09-14T14:39:55.094Z,24.10
2022-09-14T14:45:02.983Z,24.50
2022-09-14T14:50:26.906Z,24.30
2022-09-14T14:55:36.776Z,24.20
2022-09-14T15:00:44.586Z,24.40
2022-09-14T15:05:53.311Z,24.20
2022-09-14T15:11:01.481Z,23.60
2022-09-14T15:16:09.232Z,23.50
2022-09-14T15:21:16.283Z,23.30
2022-09-14T15:26:23.583Z,23.10
2022-09-14T15:31:30.871Z,22.90
2022-09-14T15:36:53.081Z,22.90
2022-09-14T15:42:01.948Z,22.70
2022-09-14T15:47:10.666Z,22.80
2022-09-14T15:52:17.780Z,22.60
2022-09-14T15:57:25.516Z,22.60
2022-09-14T16:02:32.804Z,22.60
2022-09-14T16:07:42.697Z,22.50
2022-09-14T16:12:52.740Z,22.20
2022-09-14T16:17:59.447Z,22.10
2022-09-14T16:23:07.073Z,21.90
2022-09-14T16:28:13.771Z,21.80
2022-09-14T16:33:20.447Z,21.70
2022-09-14T16:38:27.157Z,21.60
2022-09-14T16:43:35.768Z,21.60
2022-09-14T16:48:46.509Z,21.30
2022-09-14T16:54:00.334Z,21.40
2022-09-14T16:59:08.348Z,21.40
2022-09-14T17:04:20.598Z,21.20
2022-09-14T17:09:32.213Z,21.10
2022-09-14T17:14:39.182Z,20.90
2022-09-14T17:19:45.932Z,20.90
2022-09-14T17:24:52.722Z,20.90
2022-09-14T17:29:59.732Z,20.70
2022-09-14T17:35:16.055Z,20.70
2022-09-14T17:40:22.883Z,20.50
2022-09-14T17:45:30.149Z,20.70
2022-09-14T17:50:40.191Z,20.70
2022-09-14T17:55:47.237Z,20.40
2022-09-14T18:00:56.921Z,20.40
2022-09-14T18:06:05.451Z,20.50
2022-09-14T18:11:16.920Z,20.30
2022-09-14T18:16:28.166Z,20.70
2022-09-14T18:21:35.110Z,20.60
2022-09-14T18:26:41.873Z,20.50
2022-09-14T18:31:49.932Z,20.50
2022-09-14T18:36:56.704Z,20.50
2022-09-14T18:42:03.415Z,20.60
2022-09-14T18:47:10.107Z,20.50
2022-09-14T18:52:17.808Z,20.50
2022-09-14T18:57:24.497Z,20.60
2022-09-14T19:02:31.429Z,20.50
2022-09-14T19:07:41.972Z,20.60
2022-09-14T19:12:48.683Z,20.40
2022-09-14T19:17:57.575Z,20.50
2022-09-14T19:23:04.500Z,20.60
2022-09-14T19:28:11.316Z,20.40
2022-09-14T19:33:18.100Z,20.40
2022-09-14T19:38:24.909Z,20.40
2022-09-14T19:43:35.430Z,20.30
2022-09-14T19:48:45.022Z,20.30
2022-09-14T19:53:55.540Z,20.10
2022-09-14T19:59:07.641Z,20.40
2022-09-14T20:04:18.963Z,20.30
2022-09-14T20:09:27.599Z,20.50
2022-09-14T20:14:34.504Z,20.50
2022-09-14T20:19:43.717Z,20.10
2022-09-14T20:24:51.558Z,19.80
2022-09-14T20:29:59.234Z,19.80
2022-09-14T20:35:07.173Z,19.80
2022-09-14T20:40:13.965Z,19.80
2022-09-14T20:45:21.874Z,19.80
2022-09-14T20:50:28.958Z,20.00
2022-09-14T20:55:36.295Z,20.00
2022-09-14T21:00:43.264Z,20.10
2022-09-14T21:05:49.924Z,20.20
2022-09-14T21:10:57.143Z,20.40
2022-09-14T21:16:29.293Z,20.40
2022-09-14T21:21:38.387Z,20.40
2022-09-14T21:26:48.213Z,20.00
2022-09-14T21:31:55.838Z,19.90
2022-09-14T21:37:03.105Z,19.80
2022-09-14T21:42:10.456Z,19.80
2022-09-14T21:47:18.136Z,20.00
2022-09-14T21:52:27.906Z,20.10
2022-09-14T21:57:35.746Z,20.00
2022-09-14T22:02:42.572Z,20.00
2022-09-14T22:07:49.396Z,20.00
2022-09-14T22:12:57.912Z,20.00
2022-09-14T22:18:05.200Z,19.90
2022-09-14T22:23:12.986Z,19.90
2022-09-14T22:28:22.583Z,20.00
2022-09-14T22:33:30.268Z,20.00
2022-09-14T22:38:37.812Z,20.10
2022-09-14T22:43:45.075Z,19.70
2022-09-14T22:48:54.992Z,19.10
2022-09-14T22:54:02.646Z,18.70
2022-09-14T22:59:12.533Z,18.50
2022-09-14T23:04:20.461Z,18.50
2022-09-14T23:09:27.367Z,18.40
2022-09-14T23:14:36.475Z,18.30
2022-09-14T23:19:44.011Z,18.20
2022-09-14T23:24:51.558Z,18.20
2022-09-14T23:29:59.071Z,18.10
2022-09-14T23:35:08.038Z,18.10
2022-09-14T23:40:14.795Z,18.10
2022-09-14T23:45:21.547Z,17.80
2022-09-14T23:50:30.026Z,17.50
2022-09-14T23:55:38.398Z,17.40
